sensor_id;sensor_type;location;lat;lon;timestamp;P1;durP1;ratioP1;P2;durP2;ratioP2
15261;SDS011;7733;51.554;13.590;2024-01-10T00:01:59;49.40;;;28.20;;
15261;SDS011;7733;51.554;13.590;2024-01-10T00:04:25;49.03;;;27.73;;
15261;SDS011;7733;51.554;13.590;2024-01-10T00:06:51;43.30;;;26.70;;
15261;SDS011;7733;51.554;13.590;2024-01-10T00:09:17;45.77;;;26.17;;
15261;SDS011;7733;51.554;13.590;2024-01-10T00:11:43;45.57;;;26.83;;
15261;SDS011;7733;51.554;13.590;2024-01-10T00:14:08;47.40;;;27.40;;
15261;SDS011;7733;51.554;13.590;2024-01-10T00:16:35;48.70;;;28.57;;
15261;SDS011;7733;51.554;13.590;2024-01-10T00:19:01;45.23;;;27.30;;
15261;SDS011;7733;51.554;13.590;2024-01-10T00:21:27;49.77;;;28.73;;
15261;SDS011;7733;51.554;13.590;2024-01-10T00:23:53;42.60;;;26.63;;
15261;SDS011;7733;51.554;13.590;2024-01-10T00:26:19;48.23;;;26.47;;
15261;SDS011;7733;51.554;13.590;2024-01-10T00:28:45;45.07;;;27.67;;
15261;SDS011;7733;51.554;13.590;2024-01-10T00:31:11;44.30;;;26.53;;
15261;SDS011;7733;51.554;13.590;2024-01-10T00:33:38;48.60;;;27.37;;
15261;SDS011;7733;51.554;13.590;2024-01-10T00:36:05;44.67;;;27.43;;
15261;SDS011;7733;51.554;13.590;2024-01-10T00:38:31;49.57;;;27.63;;
15261;SDS011;7733;51.554;13.590;2024-01-10T00:40:58;47.00;;;26.73;;
15261;SDS011;7733;51.554;13.590;2024-01-10T00:43:24;45.20;;;26.90;;
15261;SDS011;7733;51.554;13.590;2024-01-10T00:45:50;51.60;;;27.50;;
15261;SDS011;7733;51.554;13.590;2024-01-10T00:48:16;46.30;;;26.87;;
15261;SDS011;7733;51.554;13.590;2024-01-10T00:50:44;48.63;;;28.37;;
15261;SDS011;7733;51.554;13.590;2024-01-10T00:53:10;47.13;;;27.87;;
15261;SDS011;7733;51.554;13.590;2024-01-10T00:55:36;46.57;;;28.07;;
15261;SDS011;7733;51.554;13.590;2024-01-10T00:58:02;48.67;;;28.10;;
15261;SDS011;7733;51.554;13.590;2024-01-10T01:00:27;43.83;;;27.17;;
15261;SDS011;7733;51.554;13.590;2024-01-10T01:02:53;44.03;;;27.37;;
15261;SDS011;7733;51.554;13.590;2024-01-10T01:05:19;47.03;;;27.17;;
15261;SDS011;7733;51.554;13.590;2024-01-10T01:07:44;46.20;;;27.57;;
15261;SDS011;7733;51.554;13.590;2024-01-10T01:10:10;46.33;;;28.93;;
15261;SDS011;7733;51.554;13.590;2024-01-10T01:12:36;50.97;;;29.73;;
15261;SDS011;7733;51.554;13.590;2024-01-10T01:15:02;49.47;;;29.07;;
15261;SDS011;7733;51.554;13.590;2024-01-10T01:17:29;48.17;;;29.13;;
15261;SDS011;7733;51.554;13.590;2024-01-10T01:19:54;46.73;;;28.47;;
15261;SDS011;7733;51.554;13.590;2024-01-10T01:22:20;48.93;;;27.53;;
15261;SDS011;7733;51.554;13.590;2024-01-10T01:24:46;47.53;;;28.73;;
15261;SDS011;7733;51.554;13.590;2024-01-10T01:27:12;46.90;;;28.07;;
15261;SDS011;7733;51.554;13.590;2024-01-10T01:29:38;49.40;;;28.33;;
15261;SDS011;7733;51.554;13.590;2024-01-10T01:32:03;50.00;;;29.80;;
15261;SDS011;7733;51.554;13.590;2024-01-10T01:34:30;49.67;;;27.50;;
15261;SDS011;7733;51.554;13.590;2024-01-10T01:36:55;48.50;;;28.37;;
15261;SDS011;7733;51.554;13.590;2024-01-10T01:39:21;46.50;;;28.23;;
15261;SDS011;7733;51.554;13.590;2024-01-10T01:41:47;47.63;;;28.80;;
15261;SDS011;7733;51.554;13.590;2024-01-10T01:44:13;47.67;;;28.77;;
15261;SDS011;7733;51.554;13.590;2024-01-10T01:46:39;49.67;;;28.67;;
15261;SDS011;7733;51.554;13.590;2024-01-10T01:49:08;54.23;;;29.63;;
15261;SDS011;7733;51.554;13.590;2024-01-10T01:51:36;43.23;;;27.20;;
15261;SDS011;7733;51.554;13.590;2024-01-10T01:54:03;47.97;;;29.13;;
15261;SDS011;7733;51.554;13.590;2024-01-10T01:56:36;48.27;;;28.30;;
15261;SDS011;7733;51.554;13.590;2024-01-10T01:59:06;54.07;;;30.53;;
15261;SDS011;7733;51.554;13.590;2024-01-10T02:01:33;47.93;;;29.27;;
15261;SDS011;7733;51.554;13.590;2024-01-10T02:04:03;48.47;;;28.63;;
15261;SDS011;7733;51.554;13.590;2024-01-10T02:06:29;43.80;;;27.10;;
15261;SDS011;7733;51.554;13.590;2024-01-10T02:08:55;49.83;;;29.43;;
15261;SDS011;7733;51.554;13.590;2024-01-10T02:11:22;46.80;;;28.67;;
15261;SDS011;7733;51.554;13.590;2024-01-10T02:13:50;50.53;;;27.87;;
15261;SDS011;7733;51.554;13.590;2024-01-10T02:16:19;49.47;;;27.87;;
15261;SDS011;7733;51.554;13.590;2024-01-10T02:18:46;48.13;;;27.33;;
15261;SDS011;7733;51.554;13.590;2024-01-10T02:21:12;47.83;;;28.67;;
15261;SDS011;7733;51.554;13.590;2024-01-10T02:23:37;48.43;;;28.10;;
15261;SDS011;7733;51.554;13.590;2024-01-10T02:26:03;49.20;;;29.73;;
15261;SDS011;7733;51.554;13.590;2024-01-10T02:28:30;49.83;;;27.70;;
15261;SDS011;7733;51.554;13.590;2024-01-10T02:30:55;46.07;;;26.70;;
15261;SDS011;7733;51.554;13.590;2024-01-10T02:33:22;49.07;;;27.70;;
15261;SDS011;7733;51.554;13.590;2024-01-10T02:35:48;48.93;;;28.33;;
15261;SDS011;7733;51.554;13.590;2024-01-10T02:38:14;50.27;;;28.60;;
15261;SDS011;7733;51.554;13.590;2024-01-10T02:40:39;44.70;;;26.80;;
15261;SDS011;7733;51.554;13.590;2024-01-10T02:43:05;50.90;;;29.80;;
15261;SDS011;7733;51.554;13.590;2024-01-10T02:45:32;47.13;;;27.83;;
15261;SDS011;7733;51.554;13.590;2024-01-10T02:47:58;48.27;;;28.67;;
15261;SDS011;7733;51.554;13.590;2024-01-10T02:50:24;53.00;;;28.80;;
15261;SDS011;7733;51.554;13.590;2024-01-10T02:52:50;49.10;;;27.97;;
15261;SDS011;7733;51.554;13.590;2024-01-10T02:55:16;49.20;;;28.40;;
15261;SDS011;7733;51.554;13.590;2024-01-10T02:57:41;49.63;;;28.80;;
15261;SDS011;7733;51.554;13.590;2024-01-10T03:00:07;53.40;;;28.83;;
15261;SDS011;7733;51.554;13.590;2024-01-10T03:02:34;46.97;;;28.50;;
15261;SDS011;7733;51.554;13.590;2024-01-10T03:04:59;52.07;;;28.43;;
15261;SDS011;7733;51.554;13.590;2024-01-10T03:07:25;51.00;;;28.50;;
15261;SDS011;7733;51.554;13.590;2024-01-10T03:09:51;51.37;;;29.00;;
15261;SDS011;7733;51.554;13.590;2024-01-10T03:12:16;50.07;;;28.33;;
15261;SDS011;7733;51.554;13.590;2024-01-10T03:14:42;51.30;;;28.10;;
15261;SDS011;7733;51.554;13.590;2024-01-10T03:17:08;53.60;;;29.97;;
15261;SDS011;7733;51.554;13.590;2024-01-10T03:19:33;49.53;;;27.93;;
15261;SDS011;7733;51.554;13.590;2024-01-10T03:21:59;53.03;;;28.77;;
15261;SDS011;7733;51.554;13.590;2024-01-10T03:24:25;48.23;;;27.60;;
15261;SDS011;7733;51.554;13.590;2024-01-10T03:26:52;46.37;;;28.07;;
15261;SDS011;7733;51.554;13.590;2024-01-10T03:29:18;51.60;;;28.23;;
15261;SDS011;7733;51.554;13.590;2024-01-10T03:31:43;49.70;;;28.60;;
15261;SDS011;7733;51.554;13.590;2024-01-10T03:34:09;46.63;;;26.77;;
15261;SDS011;7733;51.554;13.590;2024-01-10T03:36:35;47.53;;;27.60;;
15261;SDS011;7733;51.554;13.590;2024-01-10T03:39:00;46.00;;;26.67;;
15261;SDS011;7733;51.554;13.590;2024-01-10T03:41:26;45.57;;;28.23;;
15261;SDS011;7733;51.554;13.590;2024-01-10T03:43:52;50.80;;;28.13;;
15261;SDS011;7733;51.554;13.590;2024-01-10T03:46:18;49.77;;;28.33;;
15261;SDS011;7733;51.554;13.590;2024-01-10T03:48:43;48.97;;;28.20;;
15261;SDS011;7733;51.554;13.590;2024-01-10T03:51:17;45.60;;;26.87;;
15261;SDS011;7733;51.554;13.590;2024-01-10T03:53:44;47.80;;;27.97;;
15261;SDS011;7733;51.554;13.590;2024-01-10T03:56:11;50.47;;;28.70;;
15261;SDS011;7733;51.554;13.590;2024-01-10T03:58:37;52.03;;;28.90;;
15261;SDS011;7733;51.554;13.590;2024-01-10T04:01:06;48.03;;;28.30;;
15261;SDS011;7733;51.554;13.590;2024-01-10T04:03:33;48.87;;;27.67;;
15261;SDS011;7733;51.554;13.590;2024-01-10T04:06:00;50.43;;;29.27;;
15261;SDS011;7733;51.554;13.590;2024-01-10T04:08:26;47.27;;;27.60;;
15261;SDS011;7733;51.554;13.590;2024-01-10T04:10:52;49.23;;;28.70;;
15261;SDS011;7733;51.554;13.590;2024-01-10T04:13:18;47.63;;;26.50;;
15261;SDS011;7733;51.554;13.590;2024-01-10T04:15:44;48.70;;;27.77;;
15261;SDS011;7733;51.554;13.590;2024-01-10T04:18:09;46.37;;;27.50;;
15261;SDS011;7733;51.554;13.590;2024-01-10T04:20:35;46.50;;;26.60;;
15261;SDS011;7733;51.554;13.590;2024-01-10T04:23:01;50.37;;;28.70;;
15261;SDS011;7733;51.554;13.590;2024-01-10T04:25:27;46.70;;;27.07;;
15261;SDS011;7733;51.554;13.590;2024-01-10T04:27:53;47.13;;;27.83;;
15261;SDS011;7733;51.554;13.590;2024-01-10T04:30:20;46.87;;;27.47;;
15261;SDS011;7733;51.554;13.590;2024-01-10T04:32:46;50.50;;;28.03;;
15261;SDS011;7733;51.554;13.590;2024-01-10T04:35:11;47.37;;;27.17;;
15261;SDS011;7733;51.554;13.590;2024-01-10T04:37:38;50.83;;;27.57;;
15261;SDS011;7733;51.554;13.590;2024-01-10T04:40:04;46.83;;;27.13;;
15261;SDS011;7733;51.554;13.590;2024-01-10T04:42:31;47.83;;;26.00;;
15261;SDS011;7733;51.554;13.590;2024-01-10T04:44:57;47.33;;;28.13;;
15261;SDS011;7733;51.554;13.590;2024-01-10T04:47:22;50.60;;;27.80;;
15261;SDS011;7733;51.554;13.590;2024-01-10T04:49:48;49.63;;;28.23;;
15261;SDS011;7733;51.554;13.590;2024-01-10T04:52:14;49.40;;;28.37;;
15261;SDS011;7733;51.554;13.590;2024-01-10T04:54:39;49.07;;;27.40;;
15261;SDS011;7733;51.554;13.590;2024-01-10T04:57:05;46.33;;;25.63;;
15261;SDS011;7733;51.554;13.590;2024-01-10T04:59:32;46.90;;;26.57;;
15261;SDS011;7733;51.554;13.590;2024-01-10T05:01:58;49.10;;;27.30;;
15261;SDS011;7733;51.554;13.590;2024-01-10T05:04:24;70.20;;;37.53;;
15261;SDS011;7733;51.554;13.590;2024-01-10T05:06:50;145.53;;;67.10;;
15261;SDS011;7733;51.554;13.590;2024-01-10T05:09:16;115.97;;;56.40;;
15261;SDS011;7733;51.554;13.590;2024-01-10T05:11:42;72.90;;;36.23;;
15261;SDS011;7733;51.554;13.590;2024-01-10T05:14:08;50.03;;;28.10;;
15261;SDS011;7733;51.554;13.590;2024-01-10T05:16:34;48.97;;;27.43;;
15261;SDS011;7733;51.554;13.590;2024-01-10T05:19:00;48.93;;;27.43;;
15261;SDS011;7733;51.554;13.590;2024-01-10T05:21:30;46.93;;;26.90;;
15261;SDS011;7733;51.554;13.590;2024-01-10T05:23:57;50.50;;;26.73;;
15261;SDS011;7733;51.554;13.590;2024-01-10T05:26:23;51.10;;;27.60;;
15261;SDS011;7733;51.554;13.590;2024-01-10T05:28:49;49.40;;;27.40;;
15261;SDS011;7733;51.554;13.590;2024-01-10T05:31:14;46.30;;;27.10;;
15261;SDS011;7733;51.554;13.590;2024-01-10T05:33:40;46.57;;;26.97;;
15261;SDS011;7733;51.554;13.590;2024-01-10T05:36:07;51.43;;;29.10;;
15261;SDS011;7733;51.554;13.590;2024-01-10T05:38:36;49.97;;;27.83;;
15261;SDS011;7733;51.554;13.590;2024-01-10T05:41:02;46.60;;;26.80;;
15261;SDS011;7733;51.554;13.590;2024-01-10T05:43:28;52.73;;;28.07;;
15261;SDS011;7733;51.554;13.590;2024-01-10T05:45:54;46.60;;;27.83;;
15261;SDS011;7733;51.554;13.590;2024-01-10T05:48:20;48.57;;;27.27;;
15261;SDS011;7733;51.554;13.590;2024-01-10T05:50:45;50.63;;;27.57;;
15261;SDS011;7733;51.554;13.590;2024-01-10T05:53:11;54.73;;;29.40;;
15261;SDS011;7733;51.554;13.590;2024-01-10T05:55:39;47.77;;;28.00;;
15261;SDS011;7733;51.554;13.590;2024-01-10T05:58:04;50.53;;;27.67;;
15261;SDS011;7733;51.554;13.590;2024-01-10T06:00:30;50.87;;;27.87;;
15261;SDS011;7733;51.554;13.590;2024-01-10T06:02:57;49.03;;;28.40;;
15261;SDS011;7733;51.554;13.590;2024-01-10T06:05:22;51.93;;;28.67;;
15261;SDS011;7733;51.554;13.590;2024-01-10T06:07:48;49.50;;;29.10;;
15261;SDS011;7733;51.554;13.590;2024-01-10T06:10:14;64.90;;;37.80;;
15261;SDS011;7733;51.554;13.590;2024-01-10T06:12:39;76.57;;;44.33;;
15261;SDS011;7733;51.554;13.590;2024-01-10T06:15:05;61.67;;;37.40;;
15261;SDS011;7733;51.554;13.590;2024-01-10T06:17:32;55.40;;;32.23;;
15261;SDS011;7733;51.554;13.590;2024-01-10T06:19:58;54.77;;;30.33;;
15261;SDS011;7733;51.554;13.590;2024-01-10T06:22:28;49.23;;;28.23;;
15261;SDS011;7733;51.554;13.590;2024-01-10T06:24:53;48.27;;;27.90;;
15261;SDS011;7733;51.554;13.590;2024-01-10T06:27:19;49.80;;;27.13;;
15261;SDS011;7733;51.554;13.590;2024-01-10T06:29:45;49.03;;;27.73;;
15261;SDS011;7733;51.554;13.590;2024-01-10T06:32:10;51.57;;;28.57;;
15261;SDS011;7733;51.554;13.590;2024-01-10T06:34:36;53.37;;;28.20;;
15261;SDS011;7733;51.554;13.590;2024-01-10T06:37:02;53.13;;;28.50;;
15261;SDS011;7733;51.554;13.590;2024-01-10T06:39:28;52.60;;;28.37;;
15261;SDS011;7733;51.554;13.590;2024-01-10T06:41:54;50.17;;;29.23;;
15261;SDS011;7733;51.554;13.590;2024-01-10T06:44:20;52.80;;;28.73;;
15261;SDS011;7733;51.554;13.590;2024-01-10T06:46:45;50.23;;;28.23;;
15261;SDS011;7733;51.554;13.590;2024-01-10T06:49:11;52.30;;;27.90;;
15261;SDS011;7733;51.554;13.590;2024-01-10T06:51:37;48.73;;;27.47;;
15261;SDS011;7733;51.554;13.590;2024-01-10T06:54:03;49.73;;;27.50;;
15261;SDS011;7733;51.554;13.590;2024-01-10T06:56:30;50.77;;;28.20;;
15261;SDS011;7733;51.554;13.590;2024-01-10T06:58:57;46.93;;;28.03;;
15261;SDS011;7733;51.554;13.590;2024-01-10T07:01:23;50.70;;;28.80;;
15261;SDS011;7733;51.554;13.590;2024-01-10T07:03:49;54.27;;;28.97;;
15261;SDS011;7733;51.554;13.590;2024-01-10T07:06:16;48.80;;;27.77;;
15261;SDS011;7733;51.554;13.590;2024-01-10T07:08:42;50.73;;;28.17;;
15261;SDS011;7733;51.554;13.590;2024-01-10T07:11:09;47.10;;;26.87;;
15261;SDS011;7733;51.554;13.590;2024-01-10T07:13:39;45.90;;;27.67;;
15261;SDS011;7733;51.554;13.590;2024-01-10T07:16:06;49.97;;;27.70;;
15261;SDS011;7733;51.554;13.590;2024-01-10T07:18:32;52.23;;;27.77;;
15261;SDS011;7733;51.554;13.590;2024-01-10T07:20:58;51.90;;;27.67;;
15261;SDS011;7733;51.554;13.590;2024-01-10T07:23:24;51.90;;;28.17;;
15261;SDS011;7733;51.554;13.590;2024-01-10T07:25:51;48.93;;;27.90;;
15261;SDS011;7733;51.554;13.590;2024-01-10T07:28:17;51.33;;;27.93;;
15261;SDS011;7733;51.554;13.590;2024-01-10T07:30:43;50.67;;;27.87;;
15261;SDS011;7733;51.554;13.590;2024-01-10T07:33:10;48.57;;;27.63;;
15261;SDS011;7733;51.554;13.590;2024-01-10T07:35:36;52.13;;;27.77;;
15261;SDS011;7733;51.554;13.590;2024-01-10T07:38:03;48.20;;;27.00;;
15261;SDS011;7733;51.554;13.590;2024-01-10T07:40:33;52.27;;;28.70;;
15261;SDS011;7733;51.554;13.590;2024-01-10T07:43:01;59.50;;;30.83;;
15261;SDS011;7733;51.554;13.590;2024-01-10T07:45:27;56.03;;;31.30;;
15261;SDS011;7733;51.554;13.590;2024-01-10T07:47:54;55.17;;;31.40;;
15261;SDS011;7733;51.554;13.590;2024-01-10T07:50:19;54.23;;;30.77;;
15261;SDS011;7733;51.554;13.590;2024-01-10T07:52:46;56.37;;;30.53;;
15261;SDS011;7733;51.554;13.590;2024-01-10T07:55:12;52.77;;;30.03;;
15261;SDS011;7733;51.554;13.590;2024-01-10T07:57:38;61.33;;;32.80;;
15261;SDS011;7733;51.554;13.590;2024-01-10T08:00:07;57.73;;;31.20;;
15261;SDS011;7733;51.554;13.590;2024-01-10T08:02:37;57.90;;;31.63;;
15261;SDS011;7733;51.554;13.590;2024-01-10T08:05:04;55.50;;;31.27;;
15261;SDS011;7733;51.554;13.590;2024-01-10T08:07:30;53.80;;;30.57;;
15261;SDS011;7733;51.554;13.590;2024-01-10T08:10:00;53.57;;;30.13;;
15261;SDS011;7733;51.554;13.590;2024-01-10T08:12:25;55.87;;;30.40;;
15261;SDS011;7733;51.554;13.590;2024-01-10T08:14:52;57.13;;;29.93;;
15261;SDS011;7733;51.554;13.590;2024-01-10T08:17:17;55.47;;;29.50;;
15261;SDS011;7733;51.554;13.590;2024-01-10T08:19:44;58.87;;;35.53;;
15261;SDS011;7733;51.554;13.590;2024-01-10T08:22:10;59.87;;;34.83;;
15261;SDS011;7733;51.554;13.590;2024-01-10T08:24:37;58.87;;;32.87;;
15261;SDS011;7733;51.554;13.590;2024-01-10T08:27:03;55.23;;;32.53;;
15261;SDS011;7733;51.554;13.590;2024-01-10T08:29:29;64.50;;;33.70;;
15261;SDS011;7733;51.554;13.590;2024-01-10T08:31:56;54.33;;;31.73;;
15261;SDS011;7733;51.554;13.590;2024-01-10T08:34:22;46.90;;;28.67;;
15261;SDS011;7733;51.554;13.590;2024-01-10T08:36:49;53.37;;;29.90;;
15261;SDS011;7733;51.554;13.590;2024-01-10T08:39:18;50.80;;;30.47;;
15261;SDS011;7733;51.554;13.590;2024-01-10T08:41:44;60.83;;;34.07;;
15261;SDS011;7733;51.554;13.590;2024-01-10T08:44:10;55.00;;;31.93;;
15261;SDS011;7733;51.554;13.590;2024-01-10T08:46:36;56.77;;;34.50;;
15261;SDS011;7733;51.554;13.590;2024-01-10T08:49:02;58.60;;;34.37;;
15261;SDS011;7733;51.554;13.590;2024-01-10T08:51:28;56.80;;;32.20;;
15261;SDS011;7733;51.554;13.590;2024-01-10T08:53:55;57.13;;;32.50;;
15261;SDS011;7733;51.554;13.590;2024-01-10T08:56:22;62.20;;;31.67;;
15261;SDS011;7733;51.554;13.590;2024-01-10T08:58:48;53.83;;;32.50;;
15261;SDS011;7733;51.554;13.590;2024-01-10T09:01:14;55.50;;;32.50;;
15261;SDS011;7733;51.554;13.590;2024-01-10T09:03:40;56.70;;;31.67;;
15261;SDS011;7733;51.554;13.590;2024-01-10T09:06:06;53.13;;;30.47;;
15261;SDS011;7733;51.554;13.590;2024-01-10T09:08:35;54.47;;;30.93;;
15261;SDS011;7733;51.554;13.590;2024-01-10T09:11:01;51.23;;;30.93;;
15261;SDS011;7733;51.554;13.590;2024-01-10T09:13:28;57.27;;;32.93;;
15261;SDS011;7733;51.554;13.590;2024-01-10T09:15:54;56.53;;;32.60;;
15261;SDS011;7733;51.554;13.590;2024-01-10T09:18:20;49.87;;;31.30;;
15261;SDS011;7733;51.554;13.590;2024-01-10T09:20:46;52.70;;;32.13;;
15261;SDS011;7733;51.554;13.590;2024-01-10T09:23:13;54.13;;;32.87;;
15261;SDS011;7733;51.554;13.590;2024-01-10T09:25:39;50.77;;;31.77;;
15261;SDS011;7733;51.554;13.590;2024-01-10T09:28:05;55.13;;;33.23;;
15261;SDS011;7733;51.554;13.590;2024-01-10T09:30:30;51.87;;;31.13;;
15261;SDS011;7733;51.554;13.590;2024-01-10T09:32:56;55.23;;;31.97;;
15261;SDS011;7733;51.554;13.590;2024-01-10T09:35:22;52.13;;;31.47;;
15261;SDS011;7733;51.554;13.590;2024-01-10T09:37:48;55.43;;;31.33;;
15261;SDS011;7733;51.554;13.590;2024-01-10T09:40:15;52.47;;;31.37;;
15261;SDS011;7733;51.554;13.590;2024-01-10T09:42:43;59.50;;;31.73;;
15261;SDS011;7733;51.554;13.590;2024-01-10T09:45:09;53.20;;;32.53;;
15261;SDS011;7733;51.554;13.590;2024-01-10T09:47:39;51.50;;;31.60;;
15261;SDS011;7733;51.554;13.590;2024-01-10T09:50:08;51.00;;;31.37;;
15261;SDS011;7733;51.554;13.590;2024-01-10T09:52:41;56.57;;;32.27;;
15261;SDS011;7733;51.554;13.590;2024-01-10T09:55:15;49.43;;;30.60;;
15261;SDS011;7733;51.554;13.590;2024-01-10T09:57:43;49.03;;;31.43;;
15261;SDS011;7733;51.554;13.590;2024-01-10T10:00:09;58.30;;;33.37;;
15261;SDS011;7733;51.554;13.590;2024-01-10T10:02:37;59.90;;;35.70;;
15261;SDS011;7733;51.554;13.590;2024-01-10T10:05:14;57.00;;;34.77;;
15261;SDS011;7733;51.554;13.590;2024-01-10T10:07:45;52.03;;;32.73;;
15261;SDS011;7733;51.554;13.590;2024-01-10T10:10:16;55.97;;;32.47;;
15261;SDS011;7733;51.554;13.590;2024-01-10T10:12:47;55.07;;;32.17;;
15261;SDS011;7733;51.554;13.590;2024-01-10T10:15:18;58.07;;;34.60;;
15261;SDS011;7733;51.554;13.590;2024-01-10T10:17:47;51.67;;;30.70;;
15261;SDS011;7733;51.554;13.590;2024-01-10T10:20:19;54.57;;;32.50;;
15261;SDS011;7733;51.554;13.590;2024-01-10T10:22:57;49.80;;;31.87;;
15261;SDS011;7733;51.554;13.590;2024-01-10T10:25:29;57.73;;;35.20;;
15261;SDS011;7733;51.554;13.590;2024-01-10T10:28:10;53.23;;;31.60;;
15261;SDS011;7733;51.554;13.590;2024-01-10T10:30:36;51.73;;;31.83;;
15261;SDS011;7733;51.554;13.590;2024-01-10T10:33:02;51.97;;;33.13;;
15261;SDS011;7733;51.554;13.590;2024-01-10T10:35:29;53.50;;;33.03;;
15261;SDS011;7733;51.554;13.590;2024-01-10T10:37:55;52.07;;;33.00;;
15261;SDS011;7733;51.554;13.590;2024-01-10T10:40:21;56.40;;;33.43;;
15261;SDS011;7733;51.554;13.590;2024-01-10T10:42:47;54.93;;;34.27;;
15261;SDS011;7733;51.554;13.590;2024-01-10T10:45:19;54.67;;;31.90;;
15261;SDS011;7733;51.554;13.590;2024-01-10T10:47:50;50.73;;;33.30;;
15261;SDS011;7733;51.554;13.590;2024-01-10T10:50:22;49.93;;;31.37;;
15261;SDS011;7733;51.554;13.590;2024-01-10T10:52:51;52.27;;;32.50;;
15261;SDS011;7733;51.554;13.590;2024-01-10T10:55:18;52.70;;;32.37;;
15261;SDS011;7733;51.554;13.590;2024-01-10T10:57:47;52.17;;;32.37;;
15261;SDS011;7733;51.554;13.590;2024-01-10T11:00:18;53.23;;;33.30;;
15261;SDS011;7733;51.554;13.590;2024-01-10T11:02:46;51.73;;;32.23;;
15261;SDS011;7733;51.554;13.590;2024-01-10T11:05:12;50.77;;;31.63;;
15261;SDS011;7733;51.554;13.590;2024-01-10T11:07:42;50.37;;;31.70;;
15261;SDS011;7733;51.554;13.590;2024-01-10T11:10:28;51.23;;;33.00;;
15261;SDS011;7733;51.554;13.590;2024-01-10T11:13:18;49.87;;;32.23;;
15261;SDS011;7733;51.554;13.590;2024-01-10T11:19:03;48.40;;;30.17;;
15261;SDS011;7733;51.554;13.590;2024-01-10T11:24:56;45.17;;;28.90;;
15261;SDS011;7733;51.554;13.590;2024-01-10T11:27:22;49.87;;;29.63;;
15261;SDS011;7733;51.554;13.590;2024-01-10T11:29:48;47.63;;;31.27;;
15261;SDS011;7733;51.554;13.590;2024-01-10T11:32:15;49.87;;;30.97;;
15261;SDS011;7733;51.554;13.590;2024-01-10T11:37:18;47.30;;;29.33;;
15261;SDS011;7733;51.554;13.590;2024-01-10T11:39:44;48.00;;;31.00;;
15261;SDS011;7733;51.554;13.590;2024-01-10T11:42:10;49.37;;;30.90;;
15261;SDS011;7733;51.554;13.590;2024-01-10T11:44:46;48.37;;;31.03;;
15261;SDS011;7733;51.554;13.590;2024-01-10T11:47:17;46.60;;;31.03;;
15261;SDS011;7733;51.554;13.590;2024-01-10T11:49:55;48.43;;;30.73;;
15261;SDS011;7733;51.554;13.590;2024-01-10T11:52:22;47.93;;;31.70;;
15261;SDS011;7733;51.554;13.590;2024-01-10T11:54:57;47.00;;;31.07;;
15261;SDS011;7733;51.554;13.590;2024-01-10T11:57:25;51.07;;;32.57;;
15261;SDS011;7733;51.554;13.590;2024-01-10T11:59:54;50.30;;;32.30;;
15261;SDS011;7733;51.554;13.590;2024-01-10T12:02:21;51.43;;;33.23;;
15261;SDS011;7733;51.554;13.590;2024-01-10T12:04:52;54.50;;;33.97;;
15261;SDS011;7733;51.554;13.590;2024-01-10T12:07:19;46.53;;;31.17;;
15261;SDS011;7733;51.554;13.590;2024-01-10T12:09:45;51.37;;;32.10;;
15261;SDS011;7733;51.554;13.590;2024-01-10T12:12:12;51.43;;;33.23;;
15261;SDS011;7733;51.554;13.590;2024-01-10T12:14:39;49.53;;;31.27;;
15261;SDS011;7733;51.554;13.590;2024-01-10T12:17:06;51.07;;;32.57;;
15261;SDS011;7733;51.554;13.590;2024-01-10T12:19:35;46.07;;;31.17;;
15261;SDS011;7733;51.554;13.590;2024-01-10T12:22:07;47.50;;;32.40;;
15261;SDS011;7733;51.554;13.590;2024-01-10T12:24:33;46.70;;;31.33;;
15261;SDS011;7733;51.554;13.590;2024-01-10T12:26:59;50.57;;;31.50;;
15261;SDS011;7733;51.554;13.590;2024-01-10T12:29:25;49.63;;;32.33;;
15261;SDS011;7733;51.554;13.590;2024-01-10T12:31:51;52.57;;;32.13;;
15261;SDS011;7733;51.554;13.590;2024-01-10T12:34:18;50.63;;;31.93;;
15261;SDS011;7733;51.554;13.590;2024-01-10T12:36:46;50.37;;;32.50;;
15261;SDS011;7733;51.554;13.590;2024-01-10T12:39:12;57.47;;;36.53;;
15261;SDS011;7733;51.554;13.590;2024-01-10T12:41:40;64.13;;;38.87;;
15261;SDS011;7733;51.554;13.590;2024-01-10T12:44:06;57.90;;;36.53;;
15261;SDS011;7733;51.554;13.590;2024-01-10T12:46:32;49.53;;;32.33;;
15261;SDS011;7733;51.554;13.590;2024-01-10T12:49:02;52.13;;;33.63;;
15261;SDS011;7733;51.554;13.590;2024-01-10T12:51:31;46.40;;;30.80;;
15261;SDS011;7733;51.554;13.590;2024-01-10T12:53:59;48.27;;;32.27;;
15261;SDS011;7733;51.554;13.590;2024-01-10T12:56:25;50.03;;;32.37;;
15261;SDS011;7733;51.554;13.590;2024-01-10T12:58:53;49.67;;;31.20;;
15261;SDS011;7733;51.554;13.590;2024-01-10T13:01:25;44.90;;;29.97;;
15261;SDS011;7733;51.554;13.590;2024-01-10T13:03:51;49.73;;;31.50;;
15261;SDS011;7733;51.554;13.590;2024-01-10T13:06:17;49.57;;;32.37;;
15261;SDS011;7733;51.554;13.590;2024-01-10T13:08:47;46.57;;;30.23;;
15261;SDS011;7733;51.554;13.590;2024-01-10T13:11:14;47.97;;;31.70;;
15261;SDS011;7733;51.554;13.590;2024-01-10T13:13:40;43.67;;;29.57;;
15261;SDS011;7733;51.554;13.590;2024-01-10T13:16:08;45.40;;;29.40;;
15261;SDS011;7733;51.554;13.590;2024-01-10T13:18:38;46.90;;;29.53;;
15261;SDS011;7733;51.554;13.590;2024-01-10T13:21:04;43.57;;;27.93;;
15261;SDS011;7733;51.554;13.590;2024-01-10T13:23:30;42.77;;;28.37;;
15261;SDS011;7733;51.554;13.590;2024-01-10T13:25:56;42.73;;;27.87;;
15261;SDS011;7733;51.554;13.590;2024-01-10T13:28:21;41.20;;;27.80;;
15261;SDS011;7733;51.554;13.590;2024-01-10T13:30:47;40.23;;;27.40;;
15261;SDS011;7733;51.554;13.590;2024-01-10T13:33:13;45.37;;;28.63;;
15261;SDS011;7733;51.554;13.590;2024-01-10T13:35:39;44.40;;;29.23;;
15261;SDS011;7733;51.554;13.590;2024-01-10T13:38:05;43.07;;;28.43;;
15261;SDS011;7733;51.554;13.590;2024-01-10T13:40:31;44.23;;;29.47;;
15261;SDS011;7733;51.554;13.590;2024-01-10T13:42:59;47.60;;;31.20;;
15261;SDS011;7733;51.554;13.590;2024-01-10T13:45:27;48.30;;;30.33;;
15261;SDS011;7733;51.554;13.590;2024-01-10T13:47:54;46.63;;;31.20;;
15261;SDS011;7733;51.554;13.590;2024-01-10T13:50:20;47.90;;;32.10;;
15261;SDS011;7733;51.554;13.590;2024-01-10T13:52:45;46.97;;;32.07;;
15261;SDS011;7733;51.554;13.590;2024-01-10T13:55:11;50.63;;;33.10;;
15261;SDS011;7733;51.554;13.590;2024-01-10T13:57:37;51.33;;;33.77;;
15261;SDS011;7733;51.554;13.590;2024-01-10T14:00:03;51.77;;;33.27;;
15261;SDS011;7733;51.554;13.590;2024-01-10T14:02:31;48.03;;;32.20;;
15261;SDS011;7733;51.554;13.590;2024-01-10T14:04:58;49.37;;;32.17;;
15261;SDS011;7733;51.554;13.590;2024-01-10T14:07:23;50.67;;;32.63;;
15261;SDS011;7733;51.554;13.590;2024-01-10T14:09:49;49.80;;;32.40;;
15261;SDS011;7733;51.554;13.590;2024-01-10T14:12:16;46.10;;;31.87;;
15261;SDS011;7733;51.554;13.590;2024-01-10T14:14:41;49.37;;;32.77;;
15261;SDS011;7733;51.554;13.590;2024-01-10T14:17:07;50.97;;;32.30;;
15261;SDS011;7733;51.554;13.590;2024-01-10T14:19:33;48.63;;;33.03;;
15261;SDS011;7733;51.554;13.590;2024-01-10T14:21:59;46.73;;;30.63;;
15261;SDS011;7733;51.554;13.590;2024-01-10T14:24:25;46.83;;;32.40;;
15261;SDS011;7733;51.554;13.590;2024-01-10T14:26:50;49.70;;;33.03;;
15261;SDS011;7733;51.554;13.590;2024-01-10T14:29:16;77.23;;;49.27;;